RJTH(METAR)
12/16 16:00
RJTH 160700Z 24014G24KT 5000 RA FEW006 SCT010 BKN020 14/13 Q1012
RMK A2990=
戻る
トップページへ戻る
IMOC Co,.Ltd.